createdAt,value
2017-09-15T00:00:13.162Z,11.64
2017-09-15T00:02:41.750Z,11.58
2017-09-15T00:05:13.116Z,11.55
2017-09-15T00:07:40.928Z,11.54
2017-09-15T00:10:10.552Z,11.49
2017-09-15T00:12:38.678Z,11.48
2017-09-15T00:15:07.616Z,11.45
2017-09-15T00:17:36.086Z,11.42
2017-09-15T00:20:05.378Z,11.39
2017-09-15T00:22:33.472Z,11.37
2017-09-15T00:25:04.810Z,11.35
2017-09-15T00:27:34.854Z,11.35
2017-09-15T00:30:05.539Z,11.39
2017-09-15T00:32:34.971Z,11.42
2017-09-15T00:35:05.228Z,11.43
2017-09-15T00:37:33.370Z,11.48
2017-09-15T00:40:05.366Z,11.51
2017-09-15T00:42:34.411Z,11.54
2017-09-15T00:45:05.130Z,11.56
2017-09-15T00:47:33.174Z,11.58
2017-09-15T00:50:02.247Z,11.58
2017-09-15T00:52:31.163Z,11.54
2017-09-15T00:54:59.742Z,11.48
2017-09-15T00:57:28.578Z,11.43
2017-09-15T00:59:56.962Z,11.43
2017-09-15T01:02:25.539Z,11.39
2017-09-15T01:04:53.322Z,11.36
2017-09-15T01:07:21.039Z,11.33
2017-09-15T01:09:49.849Z,11.32
2017-09-15T01:12:19.202Z,11.30
2017-09-15T01:14:48.212Z,11.29
2017-09-15T01:17:18.054Z,11.31
2017-09-15T01:19:45.933Z,11.33
2017-09-15T01:22:19.286Z,11.31
2017-09-15T01:24:48.200Z,11.36
2017-09-15T01:27:17.420Z,11.42
2017-09-15T01:29:46.068Z,11.46
2017-09-15T01:32:14.818Z,11.51
2017-09-15T01:34:44.119Z,11.53
2017-09-15T01:37:12.807Z,11.54
2017-09-15T01:39:41.827Z,11.57
2017-09-15T01:42:09.743Z,11.61
2017-09-15T01:44:37.873Z,11.64
2017-09-15T01:47:09.709Z,11.66
2017-09-15T01:49:37.452Z,11.65
2017-09-15T01:52:05.550Z,11.65
2017-09-15T01:54:34.718Z,11.67
2017-09-15T01:57:02.851Z,11.69
2017-09-15T02:02:05.038Z,11.74
2017-09-15T02:04:32.814Z,11.72
2017-09-15T02:07:02.222Z,11.72
2017-09-15T02:09:31.476Z,11.75
2017-09-15T02:12:01.626Z,11.78
2017-09-15T02:14:30.508Z,11.86
2017-09-15T02:16:59.143Z,11.90
2017-09-15T02:19:26.953Z,11.89
2017-09-15T02:21:55.383Z,11.85
2017-09-15T02:26:57.387Z,11.82
2017-09-15T02:29:25.086Z,11.88
2017-09-15T02:31:52.901Z,11.91
2017-09-15T02:34:21.024Z,11.94
2017-09-15T02:36:49.925Z,11.96
2017-09-15T02:39:17.807Z,11.96
2017-09-15T02:41:46.047Z,11.97
2017-09-15T02:44:15.069Z,11.95
2017-09-15T02:46:45.223Z,11.94
2017-09-15T02:49:14.041Z,11.93
2017-09-15T02:51:42.795Z,11.91
2017-09-15T02:54:10.490Z,11.84
2017-09-15T02:56:39.093Z,11.78
2017-09-15T02:59:07.921Z,11.69
2017-09-15T03:01:36.521Z,11.64
2017-09-15T03:04:04.606Z,11.57
2017-09-15T03:06:34.903Z,11.54
2017-09-15T03:09:02.635Z,11.52
2017-09-15T03:11:35.177Z,11.51
2017-09-15T03:14:05.286Z,11.51
2017-09-15T03:16:33.899Z,11.50
2017-09-15T03:19:01.673Z,11.43
2017-09-15T03:21:31.433Z,11.42
2017-09-15T03:24:00.994Z,11.39
2017-09-15T03:26:29.852Z,11.38
2017-09-15T03:28:58.464Z,11.38
2017-09-15T03:31:29.726Z,11.34
2017-09-15T03:33:59.364Z,11.28
2017-09-15T03:36:29.579Z,11.24
2017-09-15T03:41:31.869Z,11.15
2017-09-15T03:44:01.636Z,11.14
2017-09-15T03:46:31.373Z,11.08
2017-09-15T03:49:00.151Z,11.03
2017-09-15T03:51:31.422Z,10.96
2017-09-15T03:54:01.365Z,10.90
2017-09-15T03:56:30.368Z,10.85
2017-09-15T04:01:31.808Z,10.80
2017-09-15T04:04:00.069Z,10.77
2017-09-15T04:06:30.324Z,10.76
2017-09-15T04:08:58.046Z,10.76
2017-09-15T04:11:26.133Z,10.77
2017-09-15T04:13:54.871Z,10.73
2017-09-15T04:16:23.385Z,10.71
2017-09-15T04:18:52.354Z,10.67
2017-09-15T04:21:21.200Z,10.68
2017-09-15T04:23:50.028Z,10.67
2017-09-15T04:26:18.165Z,10.64
2017-09-15T04:28:47.707Z,10.61
2017-09-15T04:31:15.485Z,10.60
2017-09-15T04:33:43.236Z,10.59
2017-09-15T04:36:11.724Z,10.61
2017-09-15T04:38:40.661Z,10.58
2017-09-15T04:41:08.809Z,10.55
2017-09-15T04:43:37.644Z,10.52
2017-09-15T04:46:06.556Z,10.48
2017-09-15T04:48:35.157Z,10.51
2017-09-15T04:51:04.486Z,10.52
2017-09-15T04:56:07.848Z,10.48
2017-09-15T04:58:36.468Z,10.47
2017-09-15T05:01:04.461Z,10.45
2017-09-15T05:03:35.308Z,10.44
2017-09-15T05:06:03.275Z,10.41
2017-09-15T05:08:31.525Z,10.40
2017-09-15T05:10:59.502Z,10.40
2017-09-15T05:13:27.337Z,10.42
2017-09-15T05:15:55.789Z,10.42
2017-09-15T05:18:24.217Z,10.43
2017-09-15T05:20:52.790Z,10.49
2017-09-15T05:23:21.833Z,10.54
2017-09-15T05:25:50.011Z,10.56
2017-09-15T05:28:22.729Z,10.58
2017-09-15T05:30:51.386Z,10.62
2017-09-15T05:33:20.435Z,10.67
2017-09-15T05:35:48.669Z,10.77
2017-09-15T05:38:18.613Z,10.82
2017-09-15T05:40:47.373Z,10.83
2017-09-15T05:43:15.802Z,10.87
2017-09-15T05:45:44.901Z,10.93
2017-09-15T05:48:13.899Z,11.05
2017-09-15T05:50:41.616Z,11.23
2017-09-15T05:53:09.509Z,11.30
2017-09-15T05:55:37.997Z,11.59
2017-09-15T05:58:08.884Z,12.03
2017-09-15T06:00:37.414Z,12.21
2017-09-15T06:03:05.851Z,12.48
2017-09-15T06:05:33.655Z,12.75
2017-09-15T06:08:01.480Z,12.68
2017-09-15T06:10:30.147Z,12.55
2017-09-15T06:12:58.952Z,12.26
2017-09-15T06:15:27.163Z,12.01
2017-09-15T06:17:55.899Z,11.81
2017-09-15T06:20:25.542Z,11.72
2017-09-15T06:22:53.352Z,11.71
2017-09-15T06:25:21.092Z,11.74
2017-09-15T06:27:50.895Z,11.77
2017-09-15T06:30:20.146Z,11.91
2017-09-15T06:32:48.320Z,12.04
2017-09-15T06:35:17.483Z,12.16
2017-09-15T06:37:46.101Z,12.27
2017-09-15T06:40:14.055Z,12.46
2017-09-15T06:42:43.903Z,12.57
2017-09-15T06:45:12.456Z,12.63
2017-09-15T06:47:40.625Z,12.68
2017-09-15T06:50:09.914Z,12.71
2017-09-15T06:52:39.069Z,12.72
2017-09-15T06:55:13.098Z,12.65
2017-09-15T06:57:41.248Z,12.61
2017-09-15T07:00:09.382Z,12.62
2017-09-15T07:02:37.474Z,12.69
2017-09-15T07:05:06.331Z,12.73
2017-09-15T07:07:35.975Z,12.70
2017-09-15T07:10:03.669Z,12.72
2017-09-15T07:12:32.724Z,12.94
2017-09-15T07:15:00.452Z,13.29
2017-09-15T07:17:31.755Z,13.39
2017-09-15T07:19:59.819Z,13.24
2017-09-15T07:22:29.010Z,13.15
2017-09-15T07:24:57.580Z,13.19
2017-09-15T07:27:26.286Z,13.22
2017-09-15T07:29:55.907Z,13.20
2017-09-15T07:32:24.257Z,13.36
2017-09-15T07:34:53.116Z,13.53
2017-09-15T07:37:21.466Z,13.51
2017-09-15T07:39:50.530Z,13.51
2017-09-15T07:42:19.332Z,13.57
2017-09-15T07:44:47.817Z,13.67
2017-09-15T07:47:16.878Z,13.77
2017-09-15T07:49:45.964Z,13.74
2017-09-15T07:52:14.703Z,13.73
2017-09-15T07:54:43.156Z,13.78
2017-09-15T07:57:12.780Z,13.96
2017-09-15T07:59:46.982Z,14.31
2017-09-15T08:04:49.262Z,14.97
2017-09-15T08:07:17.062Z,15.09
2017-09-15T08:09:45.144Z,14.99
2017-09-15T08:12:13.249Z,14.60
2017-09-15T08:14:42.023Z,14.32
2017-09-15T08:17:11.448Z,14.22
2017-09-15T08:19:39.974Z,14.22
2017-09-15T08:22:08.706Z,14.34
2017-09-15T08:24:37.969Z,14.51
2017-09-15T08:29:39.154Z,14.95
2017-09-15T08:32:08.112Z,15.05
2017-09-15T08:34:37.720Z,15.19
2017-09-15T08:37:08.212Z,15.23
2017-09-15T08:39:37.167Z,15.38
2017-09-15T08:42:05.545Z,15.41
2017-09-15T08:44:33.327Z,15.37
2017-09-15T08:47:02.241Z,15.43
2017-09-15T08:49:30.529Z,15.46
2017-09-15T08:54:33.064Z,15.52
2017-09-15T08:57:02.334Z,15.52
2017-09-15T08:59:30.741Z,15.49
2017-09-15T09:02:00.318Z,15.35
2017-09-15T09:04:33.193Z,15.27
2017-09-15T09:07:01.843Z,15.45
2017-09-15T09:09:31.865Z,15.48
2017-09-15T09:12:03.103Z,15.23
2017-09-15T09:14:36.182Z,15.16
2017-09-15T09:17:05.009Z,15.51
2017-09-15T09:19:33.097Z,15.44
2017-09-15T09:22:03.034Z,15.54
2017-09-15T09:24:33.510Z,15.97
2017-09-15T09:27:03.419Z,16.36
2017-09-15T09:29:31.542Z,16.67
2017-09-15T09:32:00.416Z,16.89
2017-09-15T09:34:29.476Z,17.00
2017-09-15T09:36:57.843Z,16.77
2017-09-15T09:39:27.815Z,16.61
2017-09-15T09:41:57.104Z,16.55
2017-09-15T09:44:26.811Z,16.73
2017-09-15T09:46:54.810Z,16.55
2017-09-15T09:49:23.824Z,16.10
2017-09-15T09:51:53.482Z,15.84
2017-09-15T09:54:21.660Z,15.65
2017-09-15T09:56:51.618Z,15.76
2017-09-15T09:59:20.061Z,15.83
2017-09-15T10:01:49.543Z,15.90
2017-09-15T10:04:18.021Z,15.85
2017-09-15T10:09:18.726Z,15.65
2017-09-15T10:11:46.520Z,15.56
2017-09-15T10:14:17.800Z,15.92
2017-09-15T10:16:47.604Z,16.62
2017-09-15T10:19:16.519Z,16.92
2017-09-15T10:21:44.373Z,17.07
2017-09-15T10:24:12.099Z,17.15
2017-09-15T10:26:39.867Z,16.58
2017-09-15T10:29:07.587Z,16.31
2017-09-15T10:31:35.376Z,16.58
2017-09-15T10:34:03.163Z,17.06
2017-09-15T10:36:30.917Z,17.15
2017-09-15T10:38:58.624Z,17.06
2017-09-15T10:41:26.373Z,17.09
2017-09-15T10:43:54.099Z,16.93
2017-09-15T10:46:21.824Z,17.00
2017-09-15T10:48:49.562Z,17.17
2017-09-15T10:51:17.392Z,17.27
2017-09-15T10:53:45.121Z,17.38
2017-09-15T10:56:12.871Z,17.62
2017-09-15T10:58:40.603Z,17.74
2017-09-15T11:01:08.366Z,17.82
2017-09-15T11:03:36.091Z,18.00
2017-09-15T11:06:03.847Z,18.15
2017-09-15T11:08:31.593Z,17.94
2017-09-15T11:10:59.357Z,17.30
2017-09-15T11:13:27.368Z,16.81
2017-09-15T11:15:55.152Z,16.66
2017-09-15T11:18:22.860Z,16.33
2017-09-15T11:20:50.671Z,16.18
2017-09-15T11:23:18.388Z,16.26
2017-09-15T11:25:46.142Z,16.26
2017-09-15T11:28:13.856Z,16.49
2017-09-15T11:30:41.614Z,16.95
2017-09-15T11:33:09.349Z,16.77
2017-09-15T11:35:37.081Z,16.65
2017-09-15T11:38:04.801Z,17.06
2017-09-15T11:40:32.540Z,17.54
2017-09-15T11:43:00.332Z,17.98
2017-09-15T11:45:28.293Z,17.90
2017-09-15T11:47:56.106Z,17.58
2017-09-15T11:50:23.897Z,17.27
2017-09-15T11:52:51.658Z,17.56
2017-09-15T11:55:19.367Z,18.02
2017-09-15T11:57:47.064Z,18.53
2017-09-15T12:00:14.819Z,18.84
2017-09-15T12:02:42.546Z,18.92
2017-09-15T12:05:10.249Z,18.66
2017-09-15T12:07:38.032Z,18.44
2017-09-15T12:10:05.752Z,18.29
2017-09-15T12:12:33.488Z,17.73
2017-09-15T12:15:01.203Z,17.35
2017-09-15T12:17:28.966Z,17.56
2017-09-15T12:19:56.675Z,17.76
2017-09-15T12:22:24.473Z,17.78
2017-09-15T12:24:52.188Z,17.68
2017-09-15T12:27:19.975Z,17.76
2017-09-15T12:29:47.687Z,17.97
2017-09-15T12:32:15.463Z,18.11
2017-09-15T12:34:43.979Z,18.10
2017-09-15T12:37:11.667Z,17.90
2017-09-15T12:39:39.436Z,17.71
2017-09-15T12:42:07.241Z,17.53
2017-09-15T12:44:34.929Z,17.44
2017-09-15T12:47:02.889Z,17.24
2017-09-15T12:49:30.667Z,17.15
2017-09-15T12:51:58.471Z,17.13
2017-09-15T12:54:26.200Z,17.30
2017-09-15T12:56:53.887Z,17.45
2017-09-15T12:59:21.586Z,17.75
2017-09-15T13:01:49.261Z,17.96
2017-09-15T13:04:17.030Z,17.88
2017-09-15T13:06:44.805Z,17.63
2017-09-15T13:09:12.530Z,17.42
2017-09-15T13:11:40.300Z,17.17
2017-09-15T13:14:08.006Z,16.98
2017-09-15T13:16:35.746Z,16.84
2017-09-15T13:19:03.499Z,16.81
2017-09-15T13:21:31.208Z,16.87
2017-09-15T13:23:58.871Z,17.43
2017-09-15T13:26:26.578Z,17.83
2017-09-15T13:28:54.336Z,18.15
2017-09-15T13:31:22.074Z,18.38
2017-09-15T13:33:49.820Z,18.29
2017-09-15T13:36:17.462Z,17.86
2017-09-15T13:38:45.395Z,17.58
2017-09-15T13:41:13.005Z,17.50
2017-09-15T13:43:40.688Z,17.72
2017-09-15T13:46:08.401Z,18.16
2017-09-15T13:48:36.151Z,18.47
2017-09-15T13:51:03.873Z,18.34
2017-09-15T13:53:31.646Z,18.07
2017-09-15T13:55:59.367Z,17.82
2017-09-15T13:58:27.168Z,17.54
2017-09-15T14:00:54.943Z,17.38
2017-09-15T14:03:22.725Z,17.26
2017-09-15T14:05:50.404Z,17.09
2017-09-15T14:08:18.159Z,17.03
2017-09-15T14:10:45.893Z,17.04
2017-09-15T14:13:13.810Z,17.20
2017-09-15T14:15:41.551Z,17.37
2017-09-15T14:18:09.392Z,17.58
2017-09-15T14:20:37.138Z,17.93
2017-09-15T14:23:04.810Z,18.11
2017-09-15T14:25:32.528Z,17.83
2017-09-15T14:28:00.284Z,17.51
2017-09-15T14:30:27.917Z,17.39
2017-09-15T14:32:55.608Z,17.36
2017-09-15T14:35:24.388Z,17.35
2017-09-15T14:37:52.157Z,17.20
2017-09-15T14:40:19.880Z,17.13
2017-09-15T14:42:47.592Z,16.97
2017-09-15T14:45:15.332Z,16.85
2017-09-15T14:47:43.140Z,16.77
2017-09-15T14:50:10.865Z,16.86
2017-09-15T14:52:38.628Z,17.14
2017-09-15T14:55:06.260Z,17.40
2017-09-15T14:57:33.976Z,17.54
2017-09-15T15:00:01.758Z,17.58
2017-09-15T15:02:29.507Z,17.58
2017-09-15T15:04:57.281Z,17.47
2017-09-15T15:07:24.904Z,17.27
2017-09-15T15:09:52.681Z,16.94
2017-09-15T15:12:20.386Z,16.69
2017-09-15T15:14:48.159Z,16.62
2017-09-15T15:17:15.864Z,16.75
2017-09-15T15:19:43.643Z,16.87
2017-09-15T15:22:11.359Z,16.99
2017-09-15T15:24:39.097Z,17.08
2017-09-15T15:27:06.797Z,17.07
2017-09-15T15:29:34.566Z,17.00
2017-09-15T15:32:02.219Z,16.85
2017-09-15T15:34:30.030Z,16.68
2017-09-15T15:36:57.757Z,16.48
2017-09-15T15:39:25.520Z,16.32
2017-09-15T15:41:53.244Z,16.20
2017-09-15T15:44:21.021Z,16.09
2017-09-15T15:46:48.727Z,16.02
2017-09-15T15:49:16.468Z,15.98
2017-09-15T15:51:44.182Z,15.98
2017-09-15T15:54:11.937Z,15.99
2017-09-15T15:56:39.559Z,15.99
2017-09-15T15:59:07.300Z,15.95
2017-09-15T16:01:35.024Z,15.88
2017-09-15T16:04:02.807Z,15.80
2017-09-15T16:06:30.547Z,15.70
2017-09-15T16:08:58.332Z,15.58
2017-09-15T16:11:26.047Z,15.41
2017-09-15T16:13:53.798Z,15.24
2017-09-15T16:16:21.500Z,15.12
2017-09-15T16:18:49.669Z,14.90
2017-09-15T16:21:17.398Z,14.50
2017-09-15T16:23:45.183Z,13.45
2017-09-15T16:26:12.932Z,12.61
2017-09-15T16:28:40.710Z,12.11
2017-09-15T16:31:08.374Z,11.80
2017-09-15T16:33:36.137Z,11.64
2017-09-15T16:36:03.942Z,11.55
2017-09-15T16:38:31.788Z,11.51
2017-09-15T16:40:59.587Z,11.54
2017-09-15T16:43:27.361Z,11.64
2017-09-15T16:45:55.169Z,11.79
2017-09-15T16:48:22.904Z,11.92
2017-09-15T16:50:50.705Z,12.06
2017-09-15T16:53:18.434Z,12.26
2017-09-15T16:55:46.224Z,12.47
2017-09-15T16:58:13.970Z,12.63
2017-09-15T17:00:41.836Z,12.73
2017-09-15T17:03:09.589Z,12.80
2017-09-15T17:05:37.365Z,12.89
2017-09-15T17:08:05.110Z,12.91
2017-09-15T17:10:33.838Z,12.88
2017-09-15T17:13:01.705Z,12.82
2017-09-15T17:15:29.480Z,12.78
2017-09-15T17:17:57.191Z,12.67
2017-09-15T17:20:24.933Z,12.56
2017-09-15T17:22:52.656Z,12.42
2017-09-15T17:25:20.396Z,12.31
2017-09-15T17:27:48.112Z,12.21
2017-09-15T17:30:15.786Z,12.12
2017-09-15T17:32:43.545Z,12.03
2017-09-15T17:35:11.357Z,11.93
2017-09-15T17:37:39.073Z,11.85
2017-09-15T17:40:06.795Z,11.76
2017-09-15T17:42:34.516Z,11.70
2017-09-15T17:45:02.264Z,11.61
2017-09-15T17:47:29.977Z,11.52
2017-09-15T17:49:57.783Z,11.45
2017-09-15T17:52:25.490Z,11.38
2017-09-15T17:54:53.263Z,11.32
2017-09-15T17:57:20.950Z,11.29
2017-09-15T17:59:48.696Z,11.24
2017-09-15T18:02:16.405Z,11.20
2017-09-15T18:04:44.207Z,11.14
2017-09-15T18:07:11.892Z,11.07
2017-09-15T18:09:39.668Z,11.02
2017-09-15T18:12:07.379Z,10.97
2017-09-15T18:14:35.163Z,10.90
2017-09-15T18:17:02.864Z,10.82
2017-09-15T18:19:31.542Z,10.81
2017-09-15T18:21:59.293Z,10.79
2017-09-15T18:24:26.989Z,10.78
2017-09-15T18:26:54.773Z,10.79
2017-09-15T18:29:22.505Z,10.82
2017-09-15T18:31:50.291Z,10.77
2017-09-15T18:34:18.036Z,10.73
2017-09-15T18:36:45.711Z,10.68
2017-09-15T18:39:13.333Z,10.66
2017-09-15T18:41:41.100Z,10.68
2017-09-15T18:44:08.794Z,10.67
2017-09-15T18:46:36.561Z,10.70
2017-09-15T18:49:04.237Z,10.70
2017-09-15T18:51:32.008Z,10.66
2017-09-15T18:53:59.622Z,10.64
2017-09-15T18:56:27.389Z,10.62
2017-09-15T18:58:55.111Z,10.63
2017-09-15T19:01:22.927Z,10.65
2017-09-15T19:03:50.655Z,10.67
2017-09-15T19:06:18.465Z,10.66
2017-09-15T19:08:46.199Z,10.62
2017-09-15T19:11:13.970Z,10.59
2017-09-15T19:13:41.648Z,10.54
2017-09-15T19:16:09.367Z,10.53
2017-09-15T19:18:37.026Z,10.55
2017-09-15T19:21:04.790Z,10.58
2017-09-15T19:23:32.506Z,10.64
2017-09-15T19:26:00.297Z,10.71
2017-09-15T19:28:28.010Z,10.80
2017-09-15T19:30:55.762Z,10.86
2017-09-15T19:33:23.450Z,10.89
2017-09-15T19:35:51.266Z,10.94
2017-09-15T19:38:18.980Z,10.99
2017-09-15T19:40:46.751Z,11.04
2017-09-15T19:43:14.446Z,11.07
2017-09-15T19:45:42.213Z,11.10
2017-09-15T19:48:09.931Z,11.12
2017-09-15T19:50:38.576Z,11.11
2017-09-15T19:53:06.274Z,11.06
2017-09-15T19:55:34.034Z,11.04
2017-09-15T19:58:01.721Z,11.00
2017-09-15T20:00:29.504Z,10.95
2017-09-15T20:02:57.200Z,10.90
2017-09-15T20:05:24.908Z,10.88
2017-09-15T20:07:52.651Z,10.82
2017-09-15T20:10:20.350Z,10.81
2017-09-15T20:12:48.023Z,10.76
2017-09-15T20:15:15.753Z,10.68
2017-09-15T20:17:43.512Z,10.55
2017-09-15T20:20:11.239Z,10.45
2017-09-15T20:22:39.004Z,10.37
2017-09-15T20:25:06.732Z,10.33
2017-09-15T20:27:34.482Z,10.31
2017-09-15T20:30:02.182Z,10.27
2017-09-15T20:32:29.959Z,10.22
2017-09-15T20:34:57.698Z,10.18
2017-09-15T20:37:25.431Z,10.13
2017-09-15T20:39:53.097Z,10.11
2017-09-15T20:42:20.897Z,10.07
2017-09-15T20:44:48.577Z,10.07
2017-09-15T20:47:16.312Z,10.03
2017-09-15T20:49:43.995Z,10.04
2017-09-15T20:52:11.759Z,10.06
2017-09-15T20:54:39.463Z,10.07
2017-09-15T20:57:07.210Z,10.06
2017-09-15T20:59:34.918Z,10.06
2017-09-15T21:02:02.647Z,10.08
2017-09-15T21:04:30.331Z,10.06
2017-09-15T21:06:58.086Z,10.10
2017-09-15T21:09:25.794Z,10.13
2017-09-15T21:11:53.548Z,10.14
2017-09-15T21:14:21.245Z,10.13
2017-09-15T21:16:49.004Z,10.12
2017-09-15T21:19:16.725Z,10.13
2017-09-15T21:21:44.501Z,10.09
2017-09-15T21:24:12.198Z,10.06
2017-09-15T21:26:39.985Z,10.04
2017-09-15T21:29:07.675Z,10.05
2017-09-15T21:31:35.407Z,10.07
2017-09-15T21:34:03.131Z,10.09
2017-09-15T21:36:30.920Z,10.08
2017-09-15T21:38:58.635Z,10.05
2017-09-15T21:41:26.386Z,10.02
2017-09-15T21:43:54.013Z,10.00
2017-09-15T21:46:21.691Z,10.00
2017-09-15T21:48:49.410Z,10.02
2017-09-15T21:51:17.099Z,10.02
2017-09-15T21:53:44.826Z,9.99
2017-09-15T21:56:12.553Z,9.99
2017-09-15T21:58:40.271Z,9.98
2017-09-15T22:01:07.982Z,9.95
2017-09-15T22:03:35.725Z,9.93
2017-09-15T22:06:03.413Z,9.93
2017-09-15T22:08:31.150Z,9.90
2017-09-15T22:10:58.849Z,9.88
2017-09-15T22:13:26.589Z,9.86
2017-09-15T22:15:54.260Z,9.87
2017-09-15T22:18:21.986Z,9.85
2017-09-15T22:20:49.666Z,9.82
2017-09-15T22:23:17.433Z,9.83
2017-09-15T22:25:45.126Z,9.84
2017-09-15T22:28:12.891Z,9.83
2017-09-15T22:30:40.583Z,9.81
2017-09-15T22:33:08.341Z,9.76
2017-09-15T22:35:36.135Z,9.70
2017-09-15T22:38:03.904Z,9.65
2017-09-15T22:40:31.624Z,9.57
2017-09-15T22:42:59.380Z,9.46
2017-09-15T22:45:27.081Z,9.34
2017-09-15T22:47:54.811Z,9.27
2017-09-15T22:50:22.479Z,9.21
2017-09-15T22:52:50.264Z,9.18
2017-09-15T22:55:17.966Z,9.18
2017-09-15T22:57:45.704Z,9.17
2017-09-15T23:00:13.386Z,9.16
2017-09-15T23:02:41.125Z,9.16
2017-09-15T23:05:08.835Z,9.17
2017-09-15T23:07:36.570Z,9.17
2017-09-15T23:10:04.284Z,9.17
2017-09-15T23:12:32.014Z,9.13
2017-09-15T23:14:59.698Z,9.14
2017-09-15T23:17:27.419Z,9.14
2017-09-15T23:19:55.110Z,9.12
2017-09-15T23:22:22.872Z,9.06
2017-09-15T23:24:50.557Z,9.01
2017-09-15T23:27:18.444Z,8.99
2017-09-15T23:29:46.163Z,8.97
2017-09-15T23:32:13.851Z,8.92
2017-09-15T23:34:41.631Z,8.87
2017-09-15T23:37:09.316Z,8.79
2017-09-15T23:39:37.069Z,8.71
2017-09-15T23:42:04.756Z,8.66
2017-09-15T23:44:32.507Z,8.57
2017-09-15T23:47:00.195Z,8.50
2017-09-15T23:49:27.936Z,8.45
2017-09-15T23:51:55.645Z,8.44
2017-09-15T23:54:23.409Z,8.43
2017-09-15T23:56:51.130Z,8.39
2017-09-15T23:59:18.877Z,8.39
